Harmony Sp — 3FWE6 — position and weather

sailwx.info

Track history (hours):
 
Tides and Currents Weather Stations Pressure Air Temp Water Temp Dewpoint Dewpoint Depression Visibility Wind Speed Wind Dir Waves Ship Positions

Harmony Sp

Last reported at 2017-Jul-23 21:30 UTC. Time now 2017-Jul-25 22:27 UTC.
Position N 37°11' E 012°16'.

MMSI: 353359712.

Date/timePositionNaut miles runAvg speedWind from/ knotsBaromVisibWave heightAir tempDewpointWater temp
2017-Jul-23 21:30N 37°11' E 012°16'4 8.2
2017-Jul-23 21:00N 37°10' E 012°21'8 8.1
2017-Jul-23 20:00N 37°07' E 012°31'4 8.4
2017-Jul-23 19:30N 37°05' E 012°35'4 8.6
2017-Jul-23 19:00N 37°04' E 012°41'4 8.4
2017-Jul-23 18:30N 37°02' E 012°45'2 3.6
2017-Jul-23 18:00N 37°02' E 012°47'0 0.4
2017-Jul-23 17:28N 37°02' E 012°47'0 0.4
2017-Jul-23 17:00N 37°02' E 012°47'0 0.3
2017-Jul-23 16:30N 37°01' E 012°47'0 0.3
2017-Jul-23 16:00N 37°01' E 012°47'0 0.3
2017-Jul-23 15:30N 37°01' E 012°47'0 0.2
2017-Jul-23 15:00N 37°01' E 012°47'0 0.1
2017-Jul-23 14:30N 37°01' E 012°47'0 0.1
2017-Jul-23 14:00N 37°01' E 012°47'0 0.4
2017-Jul-23 13:30N 37°01' E 012°47'4 7.1
2017-Jul-23 13:00N 36°60' E 012°51'4 8.8
2017-Jul-23 12:30N 36°58' E 012°56'4 8.7
2017-Jul-23 12:00N 36°57' E 013°01'4 8.3
2017-Jul-23 11:30N 36°56' E 013°06'5 8.4
2017-Jul-23 10:52N 36°54' E 013°12'8 8.4
2017-Jul-23 09:55N 36°50' E 013°21'6 8.3
2017-Jul-23 09:12N 36°48' E 013°28'2 8.2
2017-Jul-23 09:00N 36°48' E 013°30'4 8.3
2017-Jul-23 08:30N 36°46' E 013°35'4 8.2
2017-Jul-23 08:00N 36°44' E 013°40'4 8.2
2017-Jul-23 07:30N 36°43' E 013°44'4 8.2
2017-Jul-23 07:00N 36°42' E 013°49'4 8.3
2017-Jul-23 06:30N 36°40' E 013°54'4 8.3
2017-Jul-23 06:00N 36°39' E 013°59'4 8.3
2017-Jul-23 05:30N 36°38' E 014°04'4 8.2
2017-Jul-23 05:00N 36°36' E 014°09'4 8.0
2017-Jul-23 04:30N 36°35' E 014°14'4 7.8
2017-Jul-23 04:00N 36°33' E 014°18'4 7.9
2017-Jul-23 03:30N 36°32' E 014°23'4 8.2
2017-Jul-23 03:00N 36°30' E 014°27'4 8.3
2017-Jul-23 02:30N 36°29' E 014°32'4 8.1
2017-Jul-23 02:00N 36°28' E 014°37'4 8.2
2017-Jul-23 01:30N 36°27' E 014°42'4 8.1
2017-Jul-23 01:00N 36°27' E 014°47'4 7.8
2017-Jul-23 00:30N 36°27' E 014°52'4 7.7
2017-Jul-23 00:00N 36°27' E 014°57'4 7.4
2017-Jul-22 23:30N 36°27' E 015°01'4 7.6
2017-Jul-22 23:00N 36°27' E 015°06'4 7.7
2017-Jul-22 22:30N 36°27' E 015°11'4 8.0
2017-Jul-22 22:00N 36°27' E 015°16'4 8.1
2017-Jul-22 21:30N 36°27' E 015°21'12 8.2
2017-Jul-22 20:02N 36°27' E 015°36'3 8.2
2017-Jul-22 19:41N 36°27' E 015°39'2 8.2
2017-Jul-22 19:30N 36°27' E 015°41'5 8.2
2017-Jul-22 18:57N 36°26' E 015°47'  
Track history (hours):
 
Tides and Currents Weather Stations Pressure Air Temp Water Temp Dewpoint Dewpoint Depression Visibility Wind Speed Wind Dir Waves Ship Positions

Harmony Sp

Last reported at 2017-Jul-23 21:30 UTC. Time now 2017-Jul-25 22:27 UTC.
Position N 37°11' E 012°16'.

MMSI: 353359712.

Date/timePositionNaut miles runAvg speedWind from/ knotsBaromVisibWave heightAir tempDewpointWater temp
2017-Jul-23 21:30N 37°11' E 012°16'4 8.2
2017-Jul-23 21:00N 37°10' E 012°21'8 8.1
2017-Jul-23 20:00N 37°07' E 012°31'4 8.4
2017-Jul-23 19:30N 37°05' E 012°35'4 8.6
2017-Jul-23 19:00N 37°04' E 012°41'4 8.4
2017-Jul-23 18:30N 37°02' E 012°45'2 3.6
2017-Jul-23 18:00N 37°02' E 012°47'0 0.4
2017-Jul-23 17:28N 37°02' E 012°47'0 0.4
2017-Jul-23 17:00N 37°02' E 012°47'0 0.3
2017-Jul-23 16:30N 37°01' E 012°47'0 0.3
2017-Jul-23 16:00N 37°01' E 012°47'0 0.3
2017-Jul-23 15:30N 37°01' E 012°47'0 0.2
2017-Jul-23 15:00N 37°01' E 012°47'0 0.1
2017-Jul-23 14:30N 37°01' E 012°47'0 0.1
2017-Jul-23 14:00N 37°01' E 012°47'0 0.4
2017-Jul-23 13:30N 37°01' E 012°47'4 7.1
2017-Jul-23 13:00N 36°60' E 012°51'4 8.8
2017-Jul-23 12:30N 36°58' E 012°56'4 8.7
2017-Jul-23 12:00N 36°57' E 013°01'4 8.3
2017-Jul-23 11:30N 36°56' E 013°06'5 8.4
2017-Jul-23 10:52N 36°54' E 013°12'8 8.4
2017-Jul-23 09:55N 36°50' E 013°21'6 8.3
2017-Jul-23 09:12N 36°48' E 013°28'2 8.2
2017-Jul-23 09:00N 36°48' E 013°30'4 8.3
2017-Jul-23 08:30N 36°46' E 013°35'4 8.2
2017-Jul-23 08:00N 36°44' E 013°40'4 8.2
2017-Jul-23 07:30N 36°43' E 013°44'4 8.2
2017-Jul-23 07:00N 36°42' E 013°49'4 8.3
2017-Jul-23 06:30N 36°40' E 013°54'4 8.3
2017-Jul-23 06:00N 36°39' E 013°59'4 8.3
2017-Jul-23 05:30N 36°38' E 014°04'4 8.2
2017-Jul-23 05:00N 36°36' E 014°09'4 8.0
2017-Jul-23 04:30N 36°35' E 014°14'4 7.8
2017-Jul-23 04:00N 36°33' E 014°18'4 7.9
2017-Jul-23 03:30N 36°32' E 014°23'4 8.2
2017-Jul-23 03:00N 36°30' E 014°27'4 8.3
2017-Jul-23 02:30N 36°29' E 014°32'4 8.1
2017-Jul-23 02:00N 36°28' E 014°37'4 8.2
2017-Jul-23 01:30N 36°27' E 014°42'4 8.1
2017-Jul-23 01:00N 36°27' E 014°47'4 7.8
2017-Jul-23 00:30N 36°27' E 014°52'4 7.7
2017-Jul-23 00:00N 36°27' E 014°57'4 7.4
2017-Jul-22 23:30N 36°27' E 015°01'4 7.6
2017-Jul-22 23:00N 36°27' E 015°06'4 7.7
2017-Jul-22 22:30N 36°27' E 015°11'4 8.0
2017-Jul-22 22:00N 36°27' E 015°16'4 8.1
2017-Jul-22 21:30N 36°27' E 015°21'12 8.2
2017-Jul-22 20:02N 36°27' E 015°36'3 8.2
2017-Jul-22 19:41N 36°27' E 015°39'2 8.2
2017-Jul-22 19:30N 36°27' E 015°41'5 8.2
2017-Jul-22 18:57N 36°26' E 015°47'  

Dump ship's entire track history